createdAt,value
2022-12-31T00:00:27.826Z,11.70
2022-12-31T00:02:32.869Z,11.80
2022-12-31T00:04:38.216Z,11.70
2022-12-31T00:06:46.171Z,11.70
2022-12-31T00:08:52.378Z,11.90
2022-12-31T00:10:57.329Z,12.00
2022-12-31T00:13:02.636Z,12.00
2022-12-31T00:15:09.087Z,11.80
2022-12-31T00:17:14.049Z,12.00
2022-12-31T00:19:18.965Z,12.00
2022-12-31T00:21:25.621Z,12.00
2022-12-31T00:23:33.123Z,12.00
2022-12-31T00:25:38.769Z,12.10
2022-12-31T00:27:43.716Z,12.10
2022-12-31T00:29:48.659Z,12.00
2022-12-31T00:31:53.618Z,12.20
2022-12-31T00:33:58.838Z,12.20
2022-12-31T00:36:13.720Z,12.30
2022-12-31T00:38:18.640Z,12.30
2022-12-31T00:40:26.267Z,12.30
2022-12-31T00:42:31.219Z,12.60
2022-12-31T00:44:36.168Z,12.50
2022-12-31T00:48:45.415Z,12.50
2022-12-31T00:50:50.917Z,12.40
2022-12-31T00:52:55.839Z,12.50
2022-12-31T00:55:00.811Z,12.50
2022-12-31T00:57:08.309Z,12.50
2022-12-31T00:59:13.220Z,12.30
2022-12-31T01:01:22.536Z,12.30
2022-12-31T01:03:28.705Z,12.40
2022-12-31T01:05:35.160Z,12.40
2022-12-31T01:07:41.101Z,12.60
2022-12-31T01:09:46.282Z,12.60
2022-12-31T01:11:51.149Z,12.50
2022-12-31T01:14:01.316Z,12.60
2022-12-31T01:16:16.888Z,12.60
2022-12-31T01:18:21.852Z,12.60
2022-12-31T01:20:26.904Z,12.50
2022-12-31T01:22:31.866Z,12.50
2022-12-31T01:24:36.834Z,12.40
2022-12-31T01:26:42.559Z,12.30
2022-12-31T01:28:47.899Z,12.20
2022-12-31T01:30:55.562Z,12.20
2022-12-31T01:33:00.961Z,12.30
2022-12-31T01:35:06.161Z,12.40
2022-12-31T01:37:11.110Z,12.40
2022-12-31T01:39:16.403Z,12.40
2022-12-31T01:41:29.198Z,12.40
2022-12-31T01:43:51.963Z,12.30
2022-12-31T01:45:59.529Z,12.30
2022-12-31T01:48:04.484Z,12.30
2022-12-31T01:50:18.472Z,12.30
2022-12-31T01:52:30.389Z,12.20
2022-12-31T01:54:40.377Z,12.10
2022-12-31T01:56:47.906Z,12.10
2022-12-31T01:58:56.348Z,12.10
2022-12-31T02:01:05.169Z,12.00
2022-12-31T02:03:11.168Z,12.10
2022-12-31T02:05:25.297Z,12.10
2022-12-31T02:07:30.615Z,12.10
2022-12-31T02:09:36.607Z,12.20
2022-12-31T02:11:42.017Z,12.20
2022-12-31T02:13:46.999Z,12.10
2022-12-31T02:16:03.944Z,12.20
2022-12-31T02:18:22.624Z,12.40
2022-12-31T02:21:25.337Z,12.30
2022-12-31T02:24:11.347Z,12.40
2022-12-31T02:26:48.660Z,12.30
2022-12-31T02:29:26.995Z,12.30
2022-12-31T02:31:40.281Z,12.40
2022-12-31T02:33:53.678Z,12.60
2022-12-31T02:36:02.684Z,12.40
2022-12-31T02:38:13.792Z,12.40
2022-12-31T02:40:22.513Z,12.50
2022-12-31T02:42:27.462Z,12.60
2022-12-31T02:44:36.432Z,12.80
2022-12-31T02:46:52.449Z,12.70
2022-12-31T02:49:05.203Z,12.70
2022-12-31T02:51:36.630Z,12.80
2022-12-31T02:54:10.771Z,12.80
2022-12-31T02:56:25.216Z,12.80
2022-12-31T02:58:49.561Z,12.80
2022-12-31T03:01:15.390Z,12.90
2022-12-31T03:03:24.187Z,12.90
2022-12-31T03:05:34.389Z,13.10
2022-12-31T03:07:39.355Z,13.00
2022-12-31T03:09:44.531Z,13.00
2022-12-31T03:12:02.310Z,13.10
2022-12-31T03:14:07.279Z,13.30
2022-12-31T03:16:12.235Z,13.40
2022-12-31T03:18:39.817Z,13.20
2022-12-31T03:21:03.026Z,13.20
2022-12-31T03:23:09.908Z,13.50
2022-12-31T03:25:31.464Z,13.20
2022-12-31T03:27:36.574Z,13.20
2022-12-31T03:29:41.569Z,13.10
2022-12-31T03:31:46.557Z,13.30
2022-12-31T03:33:52.841Z,13.30
2022-12-31T03:36:00.427Z,13.30
2022-12-31T03:38:06.438Z,13.40
2022-12-31T03:40:15.662Z,13.40
2022-12-31T03:42:20.632Z,13.40
2022-12-31T03:44:26.356Z,13.40
2022-12-31T03:46:31.305Z,13.40
2022-12-31T03:48:36.940Z,13.30
2022-12-31T03:50:43.263Z,13.40
2022-12-31T03:52:51.283Z,13.40
2022-12-31T03:54:56.856Z,13.30
2022-12-31T03:57:01.828Z,13.30
2022-12-31T03:59:07.352Z,13.20
2022-12-31T04:01:12.539Z,13.30
2022-12-31T04:03:17.906Z,13.30
2022-12-31T04:05:23.677Z,13.30
2022-12-31T04:07:28.746Z,13.60
2022-12-31T04:09:36.484Z,13.40
2022-12-31T04:11:42.155Z,13.40
2022-12-31T04:13:47.128Z,13.70
2022-12-31T04:15:54.408Z,13.50
2022-12-31T04:17:59.334Z,13.40
2022-12-31T04:20:04.391Z,13.50
2022-12-31T04:22:09.800Z,13.60
2022-12-31T04:24:14.968Z,13.50
2022-12-31T04:26:22.748Z,13.50
2022-12-31T04:28:27.811Z,13.40
2022-12-31T04:30:32.915Z,13.70
2022-12-31T04:32:37.984Z,13.60
2022-12-31T04:34:43.017Z,13.60
2022-12-31T04:36:48.230Z,13.60
2022-12-31T04:38:53.201Z,13.50
2022-12-31T04:41:10.793Z,13.50
2022-12-31T04:43:18.694Z,13.50
2022-12-31T04:45:23.913Z,13.50
2022-12-31T04:47:28.823Z,13.40
2022-12-31T04:49:33.977Z,13.60
2022-12-31T04:51:40.307Z,13.50
2022-12-31T04:53:45.628Z,13.40
2022-12-31T04:55:50.935Z,13.40
2022-12-31T04:57:55.940Z,13.40
2022-12-31T05:00:03.945Z,13.60
2022-12-31T05:02:09.549Z,13.70
2022-12-31T05:04:14.659Z,13.60
2022-12-31T05:06:22.996Z,13.70
2022-12-31T05:08:28.026Z,13.70
2022-12-31T05:10:32.953Z,13.50
2022-12-31T05:12:38.535Z,13.70
2022-12-31T05:14:43.548Z,13.70
2022-12-31T05:16:51.402Z,13.70
2022-12-31T05:18:56.394Z,13.70
2022-12-31T05:21:01.956Z,13.70
2022-12-31T05:23:07.081Z,13.70
2022-12-31T05:25:12.645Z,13.70
2022-12-31T05:27:17.997Z,13.70
2022-12-31T05:29:22.903Z,13.80
2022-12-31T05:31:27.882Z,13.80
2022-12-31T05:33:35.701Z,13.80
2022-12-31T05:35:40.827Z,13.80
2022-12-31T05:37:46.728Z,13.90
2022-12-31T05:39:51.904Z,13.80
2022-12-31T05:41:57.077Z,13.80
2022-12-31T05:44:02.373Z,13.80
2022-12-31T05:46:08.374Z,13.90
2022-12-31T05:48:13.461Z,13.80
2022-12-31T05:50:21.560Z,13.80
2022-12-31T05:52:33.725Z,13.80
2022-12-31T05:54:39.188Z,14.00
2022-12-31T05:56:44.865Z,14.10
2022-12-31T05:58:49.768Z,14.00
2022-12-31T06:00:55.231Z,14.10
2022-12-31T06:03:00.304Z,14.10
2022-12-31T06:05:05.442Z,14.00
2022-12-31T06:07:13.735Z,14.10
2022-12-31T06:09:19.400Z,14.10
2022-12-31T06:11:24.347Z,14.40
2022-12-31T06:13:29.763Z,14.10
2022-12-31T06:15:34.837Z,14.10
2022-12-31T06:17:40.426Z,14.20
2022-12-31T06:19:45.586Z,14.30
2022-12-31T06:21:50.953Z,14.30
2022-12-31T06:23:58.941Z,14.20
2022-12-31T06:26:05.086Z,14.20
2022-12-31T06:28:13.307Z,14.20
2022-12-31T06:30:24.949Z,14.30
2022-12-31T06:32:29.999Z,14.30
2022-12-31T06:34:35.323Z,14.30
2022-12-31T06:36:40.328Z,14.40
2022-12-31T06:38:46.727Z,14.30
2022-12-31T06:40:55.097Z,14.40
2022-12-31T06:43:04.424Z,14.40
2022-12-31T06:45:11.177Z,14.40
2022-12-31T06:47:16.101Z,14.40
2022-12-31T06:49:21.460Z,14.40
2022-12-31T06:51:26.414Z,14.40
2022-12-31T06:53:31.368Z,14.50
2022-12-31T06:55:40.287Z,14.40
2022-12-31T06:57:48.900Z,14.40
2022-12-31T06:59:55.105Z,14.60
2022-12-31T07:02:23.910Z,14.50
2022-12-31T07:05:29.434Z,14.60
2022-12-31T07:07:41.668Z,14.50
2022-12-31T07:09:59.180Z,14.60
2022-12-31T07:12:09.195Z,14.60
2022-12-31T07:14:32.406Z,14.60
2022-12-31T07:16:57.696Z,14.60
2022-12-31T07:19:26.709Z,14.50
2022-12-31T07:21:38.487Z,14.50
2022-12-31T07:23:44.405Z,14.60
2022-12-31T07:25:59.344Z,14.60
2022-12-31T07:28:17.832Z,14.60
2022-12-31T07:30:31.976Z,14.70
2022-12-31T07:33:05.815Z,14.70
2022-12-31T07:35:25.545Z,14.80
2022-12-31T07:37:42.572Z,14.80
2022-12-31T07:39:58.922Z,14.60
2022-12-31T07:42:12.005Z,14.70
2022-12-31T07:44:35.535Z,14.60
2022-12-31T07:46:55.863Z,14.80
2022-12-31T07:49:02.458Z,14.70
2022-12-31T07:51:08.917Z,14.70
2022-12-31T07:53:14.662Z,14.80
2022-12-31T07:55:20.017Z,14.90
2022-12-31T07:57:37.185Z,14.80
2022-12-31T08:00:01.531Z,14.80
2022-12-31T08:02:18.415Z,14.80
2022-12-31T08:04:30.022Z,14.80
2022-12-31T08:06:46.372Z,14.90
2022-12-31T08:09:06.716Z,14.90
2022-12-31T08:11:23.003Z,14.80
2022-12-31T08:13:29.401Z,14.80
2022-12-31T08:15:35.257Z,14.80
2022-12-31T08:17:43.752Z,14.80
2022-12-31T08:19:50.076Z,14.80
2022-12-31T08:22:17.616Z,14.70
2022-12-31T08:24:31.337Z,15.00
2022-12-31T08:26:49.456Z,15.00
2022-12-31T08:29:17.684Z,15.00
2022-12-31T08:31:30.608Z,15.10
2022-12-31T08:33:47.716Z,14.90
2022-12-31T08:36:19.649Z,15.00
2022-12-31T08:38:36.247Z,14.90
2022-12-31T08:40:56.112Z,14.90
2022-12-31T08:43:25.784Z,14.90
2022-12-31T08:45:38.320Z,15.00
2022-12-31T08:47:58.031Z,15.00
2022-12-31T08:50:09.682Z,15.00
2022-12-31T08:52:22.315Z,15.10
2022-12-31T08:54:29.148Z,15.10
2022-12-31T08:56:38.885Z,15.10
2022-12-31T08:58:54.615Z,15.00
2022-12-31T09:01:01.825Z,15.10
2022-12-31T09:04:06.903Z,15.10
2022-12-31T09:06:23.069Z,15.10
2022-12-31T09:08:39.827Z,15.10
2022-12-31T09:10:56.530Z,15.10
2022-12-31T09:13:14.559Z,15.10
2022-12-31T09:15:32.907Z,15.10
2022-12-31T09:17:48.702Z,15.20
2022-12-31T09:19:55.288Z,15.10
2022-12-31T09:22:04.738Z,15.10
2022-12-31T09:24:13.543Z,15.10
2022-12-31T09:26:42.446Z,15.10
2022-12-31T09:28:56.441Z,15.20
2022-12-31T09:31:11.690Z,15.20
2022-12-31T09:33:28.960Z,15.10
2022-12-31T09:35:39.657Z,15.10
2022-12-31T09:37:51.293Z,15.00
2022-12-31T09:39:59.890Z,15.00
2022-12-31T09:42:57.446Z,15.00
2022-12-31T09:45:53.620Z,15.10
2022-12-31T09:48:36.339Z,15.10
2022-12-31T09:51:00.546Z,15.10
2022-12-31T09:53:38.670Z,15.10
2022-12-31T09:55:52.058Z,15.00
2022-12-31T09:58:10.527Z,15.10
2022-12-31T10:00:23.725Z,15.10
2022-12-31T10:02:50.705Z,15.00
2022-12-31T10:05:21.278Z,15.10
2022-12-31T10:07:52.179Z,15.00
2022-12-31T10:10:09.460Z,15.10
2022-12-31T10:12:38.223Z,15.10
2022-12-31T10:15:00.644Z,15.20
2022-12-31T10:17:25.402Z,15.10
2022-12-31T10:19:54.194Z,15.10
2022-12-31T10:22:17.007Z,15.20
2022-12-31T10:24:57.875Z,15.20
2022-12-31T10:27:23.435Z,15.20
2022-12-31T10:29:43.648Z,15.20
2022-12-31T10:32:02.832Z,15.30
2022-12-31T10:34:18.333Z,15.20
2022-12-31T10:36:33.639Z,15.30
2022-12-31T10:38:59.011Z,15.20
2022-12-31T10:41:46.755Z,15.30
2022-12-31T10:44:53.294Z,15.20
2022-12-31T10:47:44.326Z,15.20
2022-12-31T10:50:24.959Z,15.30
2022-12-31T10:53:13.401Z,15.30
2022-12-31T10:56:10.659Z,15.40
2022-12-31T10:58:45.016Z,15.40
2022-12-31T11:01:03.348Z,15.50
2022-12-31T11:03:48.517Z,15.50
2022-12-31T11:06:38.732Z,15.50
2022-12-31T11:09:22.710Z,15.60
2022-12-31T11:11:42.038Z,15.70
2022-12-31T11:14:19.982Z,15.70
2022-12-31T11:16:54.960Z,15.70
2022-12-31T11:19:07.369Z,15.70
2022-12-31T11:21:29.536Z,15.80
2022-12-31T11:23:48.852Z,15.80
2022-12-31T11:26:08.887Z,15.80
2022-12-31T11:28:38.959Z,15.90
2022-12-31T11:31:01.303Z,15.80
2022-12-31T11:33:28.523Z,15.90
2022-12-31T11:36:00.285Z,15.90
2022-12-31T11:38:19.987Z,15.80
2022-12-31T11:40:43.629Z,15.80
2022-12-31T11:42:58.976Z,15.80
2022-12-31T11:45:16.462Z,15.80
2022-12-31T11:48:27.956Z,15.80
2022-12-31T11:50:31.735Z,15.80
2022-12-31T11:52:57.047Z,15.80
2022-12-31T11:55:29.527Z,15.80
2022-12-31T11:57:39.854Z,15.80
2022-12-31T11:59:45.472Z,15.70
2022-12-31T12:02:00.199Z,15.80
2022-12-31T12:04:06.171Z,15.80
2022-12-31T12:06:17.123Z,15.80
2022-12-31T12:08:22.854Z,15.80
2022-12-31T12:10:36.099Z,15.80
2022-12-31T12:12:43.102Z,15.80
2022-12-31T12:14:52.644Z,15.80
2022-12-31T12:17:04.316Z,15.80
2022-12-31T12:19:19.979Z,15.80
2022-12-31T12:21:28.710Z,15.80
2022-12-31T12:23:33.678Z,15.80
2022-12-31T12:25:45.352Z,15.80
2022-12-31T12:27:50.767Z,15.80
2022-12-31T12:29:55.828Z,15.80
2022-12-31T12:32:03.404Z,15.80
2022-12-31T12:34:23.853Z,15.90
2022-12-31T12:36:31.355Z,15.90
2022-12-31T12:38:36.311Z,15.90
2022-12-31T12:40:42.499Z,15.90
2022-12-31T12:42:50.943Z,15.90
2022-12-31T12:45:05.911Z,15.90
2022-12-31T12:47:18.546Z,15.90
2022-12-31T12:49:28.411Z,15.90
2022-12-31T12:51:50.497Z,16.00
2022-12-31T12:54:04.955Z,16.00
2022-12-31T12:56:26.690Z,16.00
2022-12-31T12:58:53.145Z,15.90
2022-12-31T13:01:05.934Z,15.90
2022-12-31T13:04:23.429Z,15.90
2022-12-31T13:06:31.690Z,15.90
2022-12-31T13:09:02.040Z,16.00
2022-12-31T13:11:26.656Z,15.90
2022-12-31T13:13:46.382Z,15.90
2022-12-31T13:16:01.012Z,15.90
2022-12-31T13:18:23.514Z,15.90
2022-12-31T13:20:38.033Z,15.80
2022-12-31T13:22:50.579Z,15.90
2022-12-31T13:25:06.164Z,15.90
2022-12-31T13:27:18.980Z,15.90
2022-12-31T13:29:27.548Z,15.90
2022-12-31T13:31:37.170Z,15.90
2022-12-31T13:33:48.376Z,16.00
2022-12-31T13:35:57.232Z,16.10
2022-12-31T13:38:08.055Z,16.20
2022-12-31T13:40:26.663Z,16.10
2022-12-31T13:42:42.036Z,16.30
2022-12-31T13:44:54.548Z,16.20
2022-12-31T13:47:07.031Z,16.10
2022-12-31T13:49:21.486Z,16.20
2022-12-31T13:51:37.150Z,16.10
2022-12-31T13:53:51.841Z,16.20
2022-12-31T13:56:04.289Z,16.20
2022-12-31T13:58:26.340Z,16.20
2022-12-31T14:00:37.560Z,16.10
2022-12-31T14:02:49.457Z,16.10
2022-12-31T14:05:03.101Z,16.10
2022-12-31T14:07:15.068Z,16.10
2022-12-31T14:09:25.885Z,16.10
2022-12-31T14:12:19.341Z,16.10
2022-12-31T14:14:34.662Z,16.00
2022-12-31T14:16:48.626Z,16.00
2022-12-31T14:19:07.917Z,16.10
2022-12-31T14:21:21.716Z,16.10
2022-12-31T14:23:38.998Z,16.10
2022-12-31T14:25:52.123Z,16.00
2022-12-31T14:28:02.727Z,15.90
2022-12-31T14:30:16.126Z,15.90
2022-12-31T14:32:45.514Z,15.80
2022-12-31T14:35:01.517Z,15.90
2022-12-31T14:37:17.206Z,15.80
2022-12-31T14:39:39.865Z,15.90
2022-12-31T14:41:58.463Z,15.80
2022-12-31T14:44:22.545Z,15.70
2022-12-31T14:46:34.168Z,15.70
2022-12-31T14:48:51.825Z,15.80
2022-12-31T14:50:57.829Z,15.70
2022-12-31T14:53:11.997Z,15.70
2022-12-31T14:55:31.014Z,15.60
2022-12-31T14:58:17.100Z,15.60
2022-12-31T15:00:33.086Z,15.50
2022-12-31T15:02:38.447Z,15.50
2022-12-31T15:04:48.578Z,15.50
2022-12-31T15:07:09.625Z,15.40
2022-12-31T15:09:33.704Z,15.50
2022-12-31T15:11:54.614Z,15.40
2022-12-31T15:14:42.343Z,15.40
2022-12-31T15:16:59.406Z,15.40
2022-12-31T15:19:55.598Z,15.40
2022-12-31T15:22:09.260Z,15.30
2022-12-31T15:24:22.891Z,15.30
2022-12-31T15:26:32.580Z,15.20
2022-12-31T15:28:40.365Z,15.20
2022-12-31T15:30:50.111Z,15.10
2022-12-31T15:33:00.547Z,15.10
2022-12-31T15:35:27.348Z,15.10
2022-12-31T15:37:36.897Z,15.10
2022-12-31T15:39:45.420Z,15.00
2022-12-31T15:42:36.140Z,15.00
2022-12-31T15:44:26.204Z,14.90
2022-12-31T15:46:35.568Z,15.00
2022-12-31T15:48:52.246Z,14.90
2022-12-31T15:51:01.293Z,14.90
2022-12-31T15:53:08.182Z,14.80
2022-12-31T15:55:27.998Z,14.80
2022-12-31T15:57:36.123Z,14.70
2022-12-31T15:59:43.425Z,14.70
2022-12-31T16:01:49.856Z,14.80
2022-12-31T16:04:00.961Z,14.80
2022-12-31T16:06:18.192Z,14.70
2022-12-31T16:08:28.254Z,14.70
2022-12-31T16:10:35.439Z,14.90
2022-12-31T16:12:45.508Z,14.90
2022-12-31T16:14:56.608Z,14.80
2022-12-31T16:17:03.699Z,14.90
2022-12-31T16:19:32.864Z,14.80
2022-12-31T16:21:40.768Z,14.90
2022-12-31T16:23:53.200Z,14.80
2022-12-31T16:26:04.835Z,14.80
2022-12-31T16:28:09.892Z,14.70
2022-12-31T16:30:25.495Z,14.70
2022-12-31T16:32:37.909Z,14.70
2022-12-31T16:34:46.201Z,14.70
2022-12-31T16:37:00.242Z,14.60
2022-12-31T16:39:30.401Z,14.50
2022-12-31T16:41:46.176Z,14.60
2022-12-31T16:43:52.762Z,14.60
2022-12-31T16:46:00.907Z,14.60
2022-12-31T16:48:16.774Z,14.60
2022-12-31T16:50:27.262Z,14.70
2022-12-31T16:52:38.158Z,14.50
2022-12-31T16:54:47.338Z,14.50
2022-12-31T16:56:52.436Z,14.50
2022-12-31T16:59:05.182Z,14.50
2022-12-31T17:01:19.178Z,14.40
2022-12-31T17:03:27.650Z,14.40
2022-12-31T17:05:36.672Z,14.50
2022-12-31T17:07:45.151Z,14.50
2022-12-31T17:09:50.080Z,14.50
2022-12-31T17:11:58.051Z,14.40
2022-12-31T17:14:15.463Z,14.40
2022-12-31T17:16:21.365Z,14.30
2022-12-31T17:18:29.507Z,14.20
2022-12-31T17:20:38.079Z,14.30
2022-12-31T17:22:46.044Z,14.30
2022-12-31T17:24:52.213Z,14.20
2022-12-31T17:26:57.323Z,14.20
2022-12-31T17:29:06.028Z,14.20
2022-12-31T17:31:37.546Z,14.20
2022-12-31T17:33:42.576Z,14.20
2022-12-31T17:35:51.278Z,14.10
2022-12-31T17:37:56.278Z,14.10
2022-12-31T17:40:40.659Z,14.10
2022-12-31T17:42:34.359Z,14.10
2022-12-31T17:44:42.213Z,14.10
2022-12-31T17:46:47.692Z,14.20
2022-12-31T17:48:57.420Z,14.10
2022-12-31T17:51:05.099Z,14.20
2022-12-31T17:53:13.572Z,14.10
2022-12-31T17:55:20.652Z,14.00
2022-12-31T17:57:30.279Z,14.20
2022-12-31T17:59:37.940Z,14.30
2022-12-31T18:01:43.015Z,14.30
2022-12-31T18:03:49.110Z,14.20
2022-12-31T18:05:54.260Z,14.30
2022-12-31T18:08:01.779Z,14.20
2022-12-31T18:10:07.699Z,14.10
2022-12-31T18:12:15.833Z,14.20
2022-12-31T18:14:20.773Z,14.20
2022-12-31T18:16:25.796Z,14.40
2022-12-31T18:18:33.658Z,14.60
2022-12-31T18:20:38.661Z,14.50
2022-12-31T18:22:45.523Z,14.40
2022-12-31T18:24:56.790Z,14.40
2022-12-31T18:27:01.781Z,14.40
2022-12-31T18:29:18.367Z,14.40
2022-12-31T18:31:27.432Z,14.40
2022-12-31T18:33:32.393Z,14.30
2022-12-31T18:38:02.793Z,14.20
2022-12-31T18:40:12.569Z,14.20
2022-12-31T18:42:20.598Z,14.20
2022-12-31T18:44:25.351Z,14.10
2022-12-31T18:46:30.839Z,14.10
2022-12-31T18:48:36.481Z,14.10
2022-12-31T18:50:42.084Z,14.10
2022-12-31T18:52:47.389Z,14.00
2022-12-31T18:54:52.639Z,14.00
2022-12-31T18:57:00.175Z,14.00
2022-12-31T18:59:05.486Z,13.80
2022-12-31T19:01:28.898Z,13.90
2022-12-31T19:03:34.891Z,13.80
2022-12-31T19:05:40.887Z,13.90
2022-12-31T19:07:46.092Z,13.90
2022-12-31T19:09:56.310Z,14.10
2022-12-31T19:12:06.696Z,14.10
2022-12-31T19:14:20.425Z,14.10
2022-12-31T19:16:25.319Z,14.10
2022-12-31T19:18:30.372Z,14.10
2022-12-31T19:20:35.504Z,14.40
2022-12-31T19:22:40.547Z,14.30
2022-12-31T19:24:46.661Z,14.40
2022-12-31T19:26:52.291Z,14.50
2022-12-31T19:29:00.105Z,14.60
2022-12-31T19:31:05.725Z,14.50
2022-12-31T19:33:10.615Z,14.60
2022-12-31T19:35:16.077Z,14.40
2022-12-31T19:37:20.996Z,14.60
2022-12-31T19:39:25.936Z,14.50
2022-12-31T19:41:31.173Z,14.50
2022-12-31T19:43:36.251Z,14.40
2022-12-31T19:45:45.422Z,14.50
2022-12-31T19:47:50.599Z,14.70
2022-12-31T19:49:55.690Z,14.60
2022-12-31T19:52:00.588Z,14.50
2022-12-31T19:54:05.583Z,14.50
2022-12-31T19:56:39.576Z,14.40
2022-12-31T19:58:44.571Z,14.50
2022-12-31T20:00:56.928Z,14.50
2022-12-31T20:03:06.261Z,14.40
2022-12-31T20:05:12.953Z,14.40
2022-12-31T20:07:22.110Z,14.30
2022-12-31T20:09:30.256Z,14.20
2022-12-31T20:11:35.195Z,14.30
2022-12-31T20:13:43.976Z,14.10
2022-12-31T20:15:49.179Z,14.20
2022-12-31T20:17:54.149Z,14.10
2022-12-31T20:19:59.162Z,14.10
2022-12-31T20:22:04.272Z,14.20
2022-12-31T20:24:10.263Z,14.10
2022-12-31T20:26:15.850Z,14.10
2022-12-31T20:28:20.751Z,14.10
2022-12-31T20:30:28.270Z,14.20
2022-12-31T20:32:33.203Z,14.20
2022-12-31T20:34:38.135Z,14.20
2022-12-31T20:36:43.290Z,14.10
2022-12-31T20:38:48.909Z,14.10
2022-12-31T20:40:53.839Z,14.00
2022-12-31T20:42:58.791Z,14.00
2022-12-31T20:45:03.864Z,14.00
2022-12-31T20:47:11.506Z,13.90
2022-12-31T20:49:23.700Z,13.90
2022-12-31T20:51:42.270Z,13.90
2022-12-31T20:53:50.604Z,13.80
2022-12-31T20:55:55.594Z,13.90
2022-12-31T20:58:00.600Z,14.00
2022-12-31T21:00:06.198Z,14.10
2022-12-31T21:02:21.523Z,14.10
2022-12-31T21:04:27.047Z,14.10
2022-12-31T21:06:33.595Z,14.00
2022-12-31T21:08:39.709Z,14.00
2022-12-31T21:10:44.625Z,14.00
2022-12-31T21:12:53.222Z,14.20
2022-12-31T21:14:58.263Z,14.30
2022-12-31T21:17:03.191Z,14.50
2022-12-31T21:19:10.785Z,14.30
2022-12-31T21:21:16.224Z,14.20
2022-12-31T21:23:22.795Z,14.30
2022-12-31T21:25:27.752Z,14.30
2022-12-31T21:27:32.742Z,14.50
2022-12-31T21:29:55.748Z,14.50
2022-12-31T21:32:03.680Z,14.50
2022-12-31T21:34:11.743Z,14.40
2022-12-31T21:36:17.844Z,14.50
2022-12-31T21:38:23.135Z,14.30
2022-12-31T21:40:28.115Z,14.20
2022-12-31T21:42:33.044Z,14.20
2022-12-31T21:44:37.962Z,14.20
2022-12-31T21:47:16.012Z,14.20
2022-12-31T21:49:10.658Z,14.20
2022-12-31T21:51:24.692Z,14.20
2022-12-31T21:53:36.674Z,14.10
2022-12-31T21:55:54.772Z,14.00
2022-12-31T21:58:25.334Z,14.00
2022-12-31T22:00:42.786Z,13.90
2022-12-31T22:03:00.858Z,13.90
2022-12-31T22:05:18.501Z,13.80
2022-12-31T22:07:26.720Z,13.70
2022-12-31T22:09:31.990Z,13.70
2022-12-31T22:11:37.391Z,13.70
2022-12-31T22:13:43.244Z,13.60
2022-12-31T22:15:50.418Z,13.60
2022-12-31T22:17:56.006Z,13.60
2022-12-31T22:22:28.992Z,13.70
2022-12-31T22:24:34.308Z,13.70
2022-12-31T22:26:44.560Z,13.70
2022-12-31T22:28:51.808Z,13.70
2022-12-31T22:30:56.931Z,13.70
2022-12-31T22:33:02.012Z,13.70
2022-12-31T22:35:08.238Z,13.70
2022-12-31T22:37:35.723Z,13.70
2022-12-31T22:39:44.684Z,13.70
2022-12-31T22:41:50.477Z,13.40
2022-12-31T22:44:03.602Z,13.40
2022-12-31T22:46:12.167Z,13.40
2022-12-31T22:48:17.426Z,13.50
2022-12-31T22:50:22.392Z,13.50
2022-12-31T22:52:28.087Z,13.50
2022-12-31T22:54:32.998Z,13.50
2022-12-31T22:56:41.032Z,13.50
2022-12-31T22:58:47.011Z,13.50
2022-12-31T23:00:52.719Z,13.40
2022-12-31T23:02:57.700Z,13.40
2022-12-31T23:05:15.743Z,13.50
2022-12-31T23:07:21.400Z,13.50
2022-12-31T23:09:39.247Z,13.50
2022-12-31T23:11:47.082Z,13.50
2022-12-31T23:14:04.508Z,13.50
2022-12-31T23:16:23.276Z,13.50
2022-12-31T23:18:40.908Z,13.20
2022-12-31T23:20:58.383Z,13.30
2022-12-31T23:23:11.845Z,13.40
2022-12-31T23:25:16.998Z,13.40
2022-12-31T23:27:24.506Z,13.40
2022-12-31T23:29:29.567Z,13.40
2022-12-31T23:31:34.554Z,13.30
2022-12-31T23:33:52.344Z,13.40
2022-12-31T23:36:06.799Z,13.40
2022-12-31T23:38:11.907Z,13.40
2022-12-31T23:40:21.598Z,13.10
2022-12-31T23:42:27.063Z,13.00
2022-12-31T23:44:32.106Z,13.20
2022-12-31T23:46:37.393Z,13.30
2022-12-31T23:48:42.454Z,13.30
2022-12-31T23:50:53.909Z,13.10
2022-12-31T23:52:59.345Z,13.10
2022-12-31T23:55:04.263Z,13.20
2022-12-31T23:57:09.207Z,13.10
2022-12-31T23:59:15.018Z,13.10
